sensor_id;sensor_type;location;lat;lon;timestamp;P1;durP1;ratioP1;P2;durP2;ratioP2
66153;SDS011;52956;52.372;4.640;2022-07-29T00:01:45;2.47;;;1.00;;
66153;SDS011;52956;52.372;4.640;2022-07-29T00:04:11;1.15;;;0.90;;
66153;SDS011;52956;52.372;4.640;2022-07-29T00:06:37;2.33;;;0.95;;
66153;SDS011;52956;52.372;4.640;2022-07-29T00:09:02;1.85;;;1.05;;
66153;SDS011;52956;52.372;4.640;2022-07-29T00:11:27;1.00;;;0.90;;
66153;SDS011;52956;52.372;4.640;2022-07-29T00:13:53;3.22;;;1.10;;
66153;SDS011;52956;52.372;4.640;2022-07-29T00:16:18;3.42;;;1.05;;
66153;SDS011;52956;52.372;4.640;2022-07-29T00:18:43;1.05;;;0.77;;
66153;SDS011;52956;52.372;4.640;2022-07-29T00:21:09;1.10;;;1.00;;
66153;SDS011;52956;52.372;4.640;2022-07-29T00:23:35;1.05;;;0.93;;
66153;SDS011;52956;52.372;4.640;2022-07-29T00:26:00;2.05;;;1.20;;
66153;SDS011;52956;52.372;4.640;2022-07-29T00:28:25;1.38;;;1.00;;
66153;SDS011;52956;52.372;4.640;2022-07-29T00:30:51;1.58;;;0.90;;
66153;SDS011;52956;52.372;4.640;2022-07-29T00:33:16;1.55;;;1.00;;
66153;SDS011;52956;52.372;4.640;2022-07-29T00:35:41;1.13;;;0.98;;
66153;SDS011;52956;52.372;4.640;2022-07-29T00:38:10;1.80;;;0.90;;
66153;SDS011;52956;52.372;4.640;2022-07-29T00:40:36;1.10;;;0.90;;
66153;SDS011;52956;52.372;4.640;2022-07-29T00:43:02;2.67;;;1.00;;
66153;SDS011;52956;52.372;4.640;2022-07-29T00:45:27;0.85;;;0.80;;
66153;SDS011;52956;52.372;4.640;2022-07-29T00:47:54;1.33;;;1.23;;
66153;SDS011;52956;52.372;4.640;2022-07-29T00:50:20;3.70;;;1.27;;
66153;SDS011;52956;52.372;4.640;2022-07-29T00:52:45;1.35;;;0.85;;
66153;SDS011;52956;52.372;4.640;2022-07-29T00:55:11;3.28;;;1.00;;
66153;SDS011;52956;52.372;4.640;2022-07-29T00:57:40;4.15;;;0.80;;
66153;SDS011;52956;52.372;4.640;2022-07-29T01:00:07;1.75;;;1.17;;
66153;SDS011;52956;52.372;4.640;2022-07-29T01:02:34;0.80;;;0.80;;
66153;SDS011;52956;52.372;4.640;2022-07-29T01:05:00;1.77;;;0.90;;
66153;SDS011;52956;52.372;4.640;2022-07-29T01:07:27;1.67;;;0.73;;
66153;SDS011;52956;52.372;4.640;2022-07-29T01:09:53;1.08;;;0.80;;
66153;SDS011;52956;52.372;4.640;2022-07-29T01:12:21;8.00;;;1.38;;
66153;SDS011;52956;52.372;4.640;2022-07-29T01:14:50;1.38;;;1.00;;
66153;SDS011;52956;52.372;4.640;2022-07-29T01:20:02;0.70;;;0.70;;
66153;SDS011;52956;52.372;4.640;2022-07-29T01:31:05;3.90;;;1.00;;
66153;SDS011;52956;52.372;4.640;2022-07-29T01:33:33;1.05;;;0.75;;
66153;SDS011;52956;52.372;4.640;2022-07-29T01:39:04;1.85;;;0.80;;
66153;SDS011;52956;52.372;4.640;2022-07-29T01:41:34;1.98;;;0.70;;
66153;SDS011;52956;52.372;4.640;2022-07-29T01:44:02;1.77;;;0.80;;
66153;SDS011;52956;52.372;4.640;2022-07-29T01:46:54;1.48;;;0.80;;
66153;SDS011;52956;52.372;4.640;2022-07-29T01:49:24;2.65;;;0.77;;
66153;SDS011;52956;52.372;4.640;2022-07-29T01:51:54;2.05;;;0.82;;
66153;SDS011;52956;52.372;4.640;2022-07-29T01:54:30;3.38;;;0.95;;
66153;SDS011;52956;52.372;4.640;2022-07-29T01:57:00;2.08;;;1.05;;
66153;SDS011;52956;52.372;4.640;2022-07-29T01:59:28;1.00;;;0.70;;
66153;SDS011;52956;52.372;4.640;2022-07-29T02:01:56;1.73;;;1.00;;
66153;SDS011;52956;52.372;4.640;2022-07-29T02:04:23;1.17;;;0.85;;
66153;SDS011;52956;52.372;4.640;2022-07-29T02:06:50;1.38;;;0.90;;
66153;SDS011;52956;52.372;4.640;2022-07-29T02:09:19;1.90;;;1.10;;
66153;SDS011;52956;52.372;4.640;2022-07-29T02:11:51;1.70;;;0.90;;
66153;SDS011;52956;52.372;4.640;2022-07-29T02:14:19;0.75;;;0.70;;
66153;SDS011;52956;52.372;4.640;2022-07-29T02:16:47;1.90;;;0.73;;
66153;SDS011;52956;52.372;4.640;2022-07-29T02:19:15;1.15;;;0.70;;
66153;SDS011;52956;52.372;4.640;2022-07-29T02:21:43;1.20;;;0.85;;
66153;SDS011;52956;52.372;4.640;2022-07-29T02:24:11;2.38;;;0.80;;
66153;SDS011;52956;52.372;4.640;2022-07-29T02:26:37;2.47;;;0.75;;
66153;SDS011;52956;52.372;4.640;2022-07-29T02:29:05;1.02;;;0.80;;
66153;SDS011;52956;52.372;4.640;2022-07-29T02:31:34;2.08;;;0.80;;
66153;SDS011;52956;52.372;4.640;2022-07-29T02:34:01;1.73;;;0.63;;
66153;SDS011;52956;52.372;4.640;2022-07-29T02:36:29;0.70;;;0.50;;
66153;SDS011;52956;52.372;4.640;2022-07-29T02:38:56;1.95;;;0.90;;
66153;SDS011;52956;52.372;4.640;2022-07-29T02:44:09;0.80;;;0.80;;
66153;SDS011;52956;52.372;4.640;2022-07-29T02:46:45;1.02;;;0.68;;
66153;SDS011;52956;52.372;4.640;2022-07-29T02:52:04;1.40;;;0.80;;
66153;SDS011;52956;52.372;4.640;2022-07-29T02:54:38;1.50;;;0.70;;
66153;SDS011;52956;52.372;4.640;2022-07-29T02:57:41;3.00;;;0.90;;
66153;SDS011;52956;52.372;4.640;2022-07-29T03:00:05;2.10;;;0.70;;
66153;SDS011;52956;52.372;4.640;2022-07-29T03:02:34;1.15;;;0.80;;
66153;SDS011;52956;52.372;4.640;2022-07-29T03:05:02;1.38;;;0.80;;
66153;SDS011;52956;52.372;4.640;2022-07-29T03:07:28;1.60;;;0.90;;
66153;SDS011;52956;52.372;4.640;2022-07-29T03:09:54;1.95;;;0.90;;
66153;SDS011;52956;52.372;4.640;2022-07-29T03:12:21;1.88;;;0.70;;
66153;SDS011;52956;52.372;4.640;2022-07-29T03:14:47;2.25;;;0.80;;
66153;SDS011;52956;52.372;4.640;2022-07-29T03:17:13;0.95;;;0.70;;
66153;SDS011;52956;52.372;4.640;2022-07-29T03:19:40;1.70;;;0.80;;
66153;SDS011;52956;52.372;4.640;2022-07-29T03:22:06;1.83;;;0.90;;
66153;SDS011;52956;52.372;4.640;2022-07-29T03:24:32;0.70;;;0.70;;
66153;SDS011;52956;52.372;4.640;2022-07-29T03:27:00;1.15;;;0.80;;
66153;SDS011;52956;52.372;4.640;2022-07-29T03:29:26;2.40;;;0.82;;
66153;SDS011;52956;52.372;4.640;2022-07-29T03:31:52;0.93;;;0.80;;
66153;SDS011;52956;52.372;4.640;2022-07-29T03:34:17;2.03;;;0.80;;
66153;SDS011;52956;52.372;4.640;2022-07-29T03:36:42;1.35;;;0.73;;
66153;SDS011;52956;52.372;4.640;2022-07-29T03:39:08;1.60;;;0.77;;
66153;SDS011;52956;52.372;4.640;2022-07-29T03:41:35;1.40;;;0.95;;
66153;SDS011;52956;52.372;4.640;2022-07-29T03:44:04;0.98;;;0.80;;
66153;SDS011;52956;52.372;4.640;2022-07-29T03:46:31;1.63;;;0.80;;
66153;SDS011;52956;52.372;4.640;2022-07-29T03:49:00;1.27;;;1.00;;
66153;SDS011;52956;52.372;4.640;2022-07-29T03:51:28;1.75;;;0.90;;
66153;SDS011;52956;52.372;4.640;2022-07-29T03:53:53;1.08;;;0.60;;
66153;SDS011;52956;52.372;4.640;2022-07-29T03:56:21;2.58;;;1.10;;
66153;SDS011;52956;52.372;4.640;2022-07-29T03:58:47;1.33;;;0.82;;
66153;SDS011;52956;52.372;4.640;2022-07-29T04:01:14;0.73;;;0.73;;
66153;SDS011;52956;52.372;4.640;2022-07-29T04:03:42;2.25;;;0.70;;
66153;SDS011;52956;52.372;4.640;2022-07-29T04:06:10;1.08;;;0.82;;
66153;SDS011;52956;52.372;4.640;2022-07-29T04:08:36;2.00;;;0.90;;
66153;SDS011;52956;52.372;4.640;2022-07-29T04:11:01;0.90;;;0.70;;
66153;SDS011;52956;52.372;4.640;2022-07-29T04:13:28;0.82;;;0.82;;
66153;SDS011;52956;52.372;4.640;2022-07-29T04:15:53;1.20;;;0.88;;
66153;SDS011;52956;52.372;4.640;2022-07-29T04:18:19;1.20;;;0.88;;
66153;SDS011;52956;52.372;4.640;2022-07-29T04:20:44;0.80;;;0.80;;
66153;SDS011;52956;52.372;4.640;2022-07-29T04:23:10;1.40;;;0.90;;
66153;SDS011;52956;52.372;4.640;2022-07-29T04:25:38;1.55;;;1.00;;
66153;SDS011;52956;52.372;4.640;2022-07-29T04:28:05;1.10;;;0.80;;
66153;SDS011;52956;52.372;4.640;2022-07-29T04:30:31;1.05;;;0.95;;
66153;SDS011;52956;52.372;4.640;2022-07-29T04:32:57;1.50;;;1.00;;
66153;SDS011;52956;52.372;4.640;2022-07-29T04:35:23;1.60;;;1.08;;
66153;SDS011;52956;52.372;4.640;2022-07-29T04:37:48;3.42;;;1.20;;
66153;SDS011;52956;52.372;4.640;2022-07-29T04:40:14;0.77;;;0.77;;
66153;SDS011;52956;52.372;4.640;2022-07-29T04:42:39;1.75;;;0.90;;
66153;SDS011;52956;52.372;4.640;2022-07-29T04:45:05;0.98;;;0.88;;
66153;SDS011;52956;52.372;4.640;2022-07-29T04:47:31;3.92;;;1.05;;
66153;SDS011;52956;52.372;4.640;2022-07-29T04:49:56;2.05;;;1.35;;
66153;SDS011;52956;52.372;4.640;2022-07-29T04:52:22;2.05;;;1.00;;
66153;SDS011;52956;52.372;4.640;2022-07-29T04:54:47;2.55;;;1.10;;
66153;SDS011;52956;52.372;4.640;2022-07-29T04:57:13;1.40;;;1.02;;
66153;SDS011;52956;52.372;4.640;2022-07-29T04:59:39;4.05;;;1.33;;
66153;SDS011;52956;52.372;4.640;2022-07-29T05:02:04;5.55;;;1.40;;
66153;SDS011;52956;52.372;4.640;2022-07-29T05:04:29;3.95;;;1.50;;
66153;SDS011;52956;52.372;4.640;2022-07-29T05:06:55;5.82;;;1.88;;
66153;SDS011;52956;52.372;4.640;2022-07-29T05:09:20;7.53;;;1.73;;
66153;SDS011;52956;52.372;4.640;2022-07-29T05:11:45;5.38;;;1.30;;
66153;SDS011;52956;52.372;4.640;2022-07-29T05:14:10;2.17;;;1.20;;
66153;SDS011;52956;52.372;4.640;2022-07-29T05:16:36;1.67;;;1.52;;
66153;SDS011;52956;52.372;4.640;2022-07-29T05:19:01;1.70;;;1.15;;
66153;SDS011;52956;52.372;4.640;2022-07-29T05:21:27;2.65;;;1.45;;
66153;SDS011;52956;52.372;4.640;2022-07-29T05:23:53;27.38;;;2.42;;
66153;SDS011;52956;52.372;4.640;2022-07-29T05:26:18;12.80;;;2.00;;
66153;SDS011;52956;52.372;4.640;2022-07-29T05:28:43;6.78;;;2.03;;
66153;SDS011;52956;52.372;4.640;2022-07-29T05:31:09;4.38;;;1.65;;
66153;SDS011;52956;52.372;4.640;2022-07-29T05:33:34;9.27;;;2.13;;
66153;SDS011;52956;52.372;4.640;2022-07-29T05:35:59;7.70;;;2.08;;
66153;SDS011;52956;52.372;4.640;2022-07-29T05:38:25;6.93;;;2.00;;
66153;SDS011;52956;52.372;4.640;2022-07-29T05:40:50;8.27;;;1.90;;
66153;SDS011;52956;52.372;4.640;2022-07-29T05:43:15;10.23;;;1.85;;
66153;SDS011;52956;52.372;4.640;2022-07-29T05:45:40;6.32;;;2.17;;
66153;SDS011;52956;52.372;4.640;2022-07-29T05:48:06;8.55;;;2.05;;
66153;SDS011;52956;52.372;4.640;2022-07-29T05:50:31;5.20;;;1.70;;
66153;SDS011;52956;52.372;4.640;2022-07-29T05:52:57;4.50;;;1.75;;
66153;SDS011;52956;52.372;4.640;2022-07-29T05:55:22;7.57;;;2.08;;
66153;SDS011;52956;52.372;4.640;2022-07-29T05:57:47;4.47;;;1.70;;
66153;SDS011;52956;52.372;4.640;2022-07-29T06:00:13;5.53;;;1.95;;
66153;SDS011;52956;52.372;4.640;2022-07-29T06:02:38;10.98;;;2.08;;
66153;SDS011;52956;52.372;4.640;2022-07-29T06:05:03;6.28;;;2.25;;
66153;SDS011;52956;52.372;4.640;2022-07-29T06:07:29;7.80;;;1.80;;
66153;SDS011;52956;52.372;4.640;2022-07-29T06:09:55;5.35;;;1.80;;
66153;SDS011;52956;52.372;4.640;2022-07-29T06:12:20;3.17;;;1.50;;
66153;SDS011;52956;52.372;4.640;2022-07-29T06:14:46;3.50;;;1.45;;
66153;SDS011;52956;52.372;4.640;2022-07-29T06:17:11;3.20;;;1.60;;
66153;SDS011;52956;52.372;4.640;2022-07-29T06:19:37;3.90;;;1.55;;
66153;SDS011;52956;52.372;4.640;2022-07-29T06:22:02;2.65;;;1.60;;
66153;SDS011;52956;52.372;4.640;2022-07-29T06:24:28;3.00;;;1.80;;
66153;SDS011;52956;52.372;4.640;2022-07-29T06:26:54;6.30;;;1.65;;
66153;SDS011;52956;52.372;4.640;2022-07-29T06:29:19;3.45;;;1.55;;
66153;SDS011;52956;52.372;4.640;2022-07-29T06:31:44;4.45;;;1.58;;
66153;SDS011;52956;52.372;4.640;2022-07-29T06:34:10;9.75;;;1.45;;
66153;SDS011;52956;52.372;4.640;2022-07-29T06:36:35;5.78;;;1.77;;
66153;SDS011;52956;52.372;4.640;2022-07-29T06:39:03;5.20;;;1.95;;
66153;SDS011;52956;52.372;4.640;2022-07-29T06:41:31;3.90;;;1.40;;
66153;SDS011;52956;52.372;4.640;2022-07-29T06:43:56;2.10;;;1.45;;
66153;SDS011;52956;52.372;4.640;2022-07-29T06:46:21;5.22;;;1.90;;
66153;SDS011;52956;52.372;4.640;2022-07-29T06:48:47;4.85;;;1.52;;
66153;SDS011;52956;52.372;4.640;2022-07-29T06:51:12;4.13;;;1.50;;
66153;SDS011;52956;52.372;4.640;2022-07-29T06:53:38;1.85;;;1.30;;
66153;SDS011;52956;52.372;4.640;2022-07-29T06:56:05;4.22;;;1.70;;
66153;SDS011;52956;52.372;4.640;2022-07-29T06:58:33;2.42;;;1.60;;
66153;SDS011;52956;52.372;4.640;2022-07-29T07:01:01;4.53;;;1.55;;
66153;SDS011;52956;52.372;4.640;2022-07-29T07:03:27;3.67;;;1.75;;
66153;SDS011;52956;52.372;4.640;2022-07-29T07:05:53;3.90;;;1.50;;
66153;SDS011;52956;52.372;4.640;2022-07-29T07:08:19;4.97;;;1.60;;
66153;SDS011;52956;52.372;4.640;2022-07-29T07:10:45;2.30;;;1.40;;
66153;SDS011;52956;52.372;4.640;2022-07-29T07:13:11;2.67;;;1.33;;
66153;SDS011;52956;52.372;4.640;2022-07-29T07:15:37;2.47;;;1.35;;
66153;SDS011;52956;52.372;4.640;2022-07-29T07:18:03;1.80;;;1.38;;
66153;SDS011;52956;52.372;4.640;2022-07-29T07:20:29;2.17;;;1.30;;
66153;SDS011;52956;52.372;4.640;2022-07-29T07:22:54;2.95;;;1.48;;
66153;SDS011;52956;52.372;4.640;2022-07-29T07:25:20;1.92;;;1.30;;
66153;SDS011;52956;52.372;4.640;2022-07-29T07:27:45;1.88;;;1.25;;
66153;SDS011;52956;52.372;4.640;2022-07-29T07:30:11;2.63;;;1.65;;
66153;SDS011;52956;52.372;4.640;2022-07-29T07:32:36;1.75;;;1.13;;
66153;SDS011;52956;52.372;4.640;2022-07-29T07:35:03;3.45;;;1.50;;
66153;SDS011;52956;52.372;4.640;2022-07-29T07:37:29;3.63;;;1.67;;
66153;SDS011;52956;52.372;4.640;2022-07-29T07:39:55;3.45;;;1.33;;
66153;SDS011;52956;52.372;4.640;2022-07-29T07:42:20;6.30;;;1.23;;
66153;SDS011;52956;52.372;4.640;2022-07-29T07:44:45;6.55;;;1.60;;
66153;SDS011;52956;52.372;4.640;2022-07-29T07:47:14;2.60;;;1.38;;
66153;SDS011;52956;52.372;4.640;2022-07-29T07:49:47;4.18;;;1.60;;
66153;SDS011;52956;52.372;4.640;2022-07-29T07:52:14;3.05;;;1.40;;
66153;SDS011;52956;52.372;4.640;2022-07-29T07:54:41;2.05;;;1.30;;
66153;SDS011;52956;52.372;4.640;2022-07-29T07:57:07;3.83;;;1.40;;
66153;SDS011;52956;52.372;4.640;2022-07-29T07:59:33;2.92;;;1.10;;
66153;SDS011;52956;52.372;4.640;2022-07-29T08:01:58;5.47;;;1.55;;
66153;SDS011;52956;52.372;4.640;2022-07-29T08:04:25;3.80;;;1.38;;
66153;SDS011;52956;52.372;4.640;2022-07-29T08:06:50;4.85;;;1.50;;
66153;SDS011;52956;52.372;4.640;2022-07-29T08:09:15;2.92;;;1.73;;
66153;SDS011;52956;52.372;4.640;2022-07-29T08:11:41;2.45;;;1.40;;
66153;SDS011;52956;52.372;4.640;2022-07-29T08:14:06;5.13;;;1.30;;
66153;SDS011;52956;52.372;4.640;2022-07-29T08:16:31;15.32;;;1.90;;
66153;SDS011;52956;52.372;4.640;2022-07-29T08:18:57;15.18;;;2.00;;
66153;SDS011;52956;52.372;4.640;2022-07-29T08:21:23;13.77;;;1.67;;
66153;SDS011;52956;52.372;4.640;2022-07-29T08:23:49;19.40;;;1.90;;
66153;SDS011;52956;52.372;4.640;2022-07-29T08:26:18;14.55;;;2.00;;
66153;SDS011;52956;52.372;4.640;2022-07-29T08:28:45;12.77;;;1.63;;
66153;SDS011;52956;52.372;4.640;2022-07-29T08:31:13;10.38;;;1.50;;
66153;SDS011;52956;52.372;4.640;2022-07-29T08:33:39;12.75;;;1.58;;
66153;SDS011;52956;52.372;4.640;2022-07-29T08:36:05;11.13;;;2.05;;
66153;SDS011;52956;52.372;4.640;2022-07-29T08:38:31;5.80;;;1.35;;
66153;SDS011;52956;52.372;4.640;2022-07-29T08:40:58;9.55;;;1.70;;
66153;SDS011;52956;52.372;4.640;2022-07-29T08:43:25;8.73;;;1.55;;
66153;SDS011;52956;52.372;4.640;2022-07-29T08:45:51;9.00;;;1.73;;
66153;SDS011;52956;52.372;4.640;2022-07-29T08:48:20;6.07;;;1.75;;
66153;SDS011;52956;52.372;4.640;2022-07-29T08:50:47;15.63;;;1.98;;
66153;SDS011;52956;52.372;4.640;2022-07-29T08:53:15;19.30;;;1.90;;
66153;SDS011;52956;52.372;4.640;2022-07-29T08:55:42;10.65;;;1.60;;
66153;SDS011;52956;52.372;4.640;2022-07-29T08:58:09;21.80;;;2.17;;
66153;SDS011;52956;52.372;4.640;2022-07-29T09:00:36;7.40;;;1.67;;
66153;SDS011;52956;52.372;4.640;2022-07-29T09:03:06;6.22;;;1.50;;
66153;SDS011;52956;52.372;4.640;2022-07-29T09:05:33;4.15;;;1.52;;
66153;SDS011;52956;52.372;4.640;2022-07-29T09:07:59;6.82;;;1.58;;
66153;SDS011;52956;52.372;4.640;2022-07-29T09:10:25;7.15;;;1.58;;
66153;SDS011;52956;52.372;4.640;2022-07-29T09:12:51;3.58;;;1.50;;
66153;SDS011;52956;52.372;4.640;2022-07-29T09:15:17;5.28;;;1.15;;
66153;SDS011;52956;52.372;4.640;2022-07-29T09:17:47;3.63;;;1.50;;
66153;SDS011;52956;52.372;4.640;2022-07-29T09:20:18;6.35;;;1.65;;
66153;SDS011;52956;52.372;4.640;2022-07-29T09:22:45;6.25;;;1.33;;
66153;SDS011;52956;52.372;4.640;2022-07-29T09:28:09;5.22;;;1.30;;
66153;SDS011;52956;52.372;4.640;2022-07-29T09:30:51;5.00;;;1.40;;
66153;SDS011;52956;52.372;4.640;2022-07-29T09:33:18;3.70;;;1.50;;
66153;SDS011;52956;52.372;4.640;2022-07-29T09:35:46;2.70;;;1.20;;
66153;SDS011;52956;52.372;4.640;2022-07-29T09:38:24;3.35;;;1.52;;
66153;SDS011;52956;52.372;4.640;2022-07-29T09:40:59;3.63;;;1.40;;
66153;SDS011;52956;52.372;4.640;2022-07-29T09:43:26;3.85;;;1.70;;
66153;SDS011;52956;52.372;4.640;2022-07-29T09:45:52;3.42;;;1.67;;
66153;SDS011;52956;52.372;4.640;2022-07-29T09:48:24;3.47;;;1.48;;
66153;SDS011;52956;52.372;4.640;2022-07-29T09:50:50;3.25;;;1.52;;
66153;SDS011;52956;52.372;4.640;2022-07-29T09:53:30;2.58;;;1.40;;
66153;SDS011;52956;52.372;4.640;2022-07-29T09:58:25;6.10;;;1.27;;
66153;SDS011;52956;52.372;4.640;2022-07-29T10:00:51;2.17;;;1.27;;
66153;SDS011;52956;52.372;4.640;2022-07-29T10:03:18;3.20;;;1.50;;
66153;SDS011;52956;52.372;4.640;2022-07-29T10:05:44;2.05;;;1.33;;
66153;SDS011;52956;52.372;4.640;2022-07-29T10:08:11;5.38;;;1.58;;
66153;SDS011;52956;52.372;4.640;2022-07-29T10:10:40;4.47;;;1.70;;
66153;SDS011;52956;52.372;4.640;2022-07-29T10:13:08;4.18;;;1.60;;
66153;SDS011;52956;52.372;4.640;2022-07-29T10:15:36;12.82;;;1.83;;
66153;SDS011;52956;52.372;4.640;2022-07-29T10:18:06;3.58;;;1.50;;
66153;SDS011;52956;52.372;4.640;2022-07-29T10:20:32;4.10;;;1.73;;
66153;SDS011;52956;52.372;4.640;2022-07-29T10:22:58;6.18;;;1.40;;
66153;SDS011;52956;52.372;4.640;2022-07-29T10:25:24;2.50;;;1.45;;
66153;SDS011;52956;52.372;4.640;2022-07-29T10:27:50;2.30;;;1.45;;
66153;SDS011;52956;52.372;4.640;2022-07-29T10:30:16;2.78;;;1.40;;
66153;SDS011;52956;52.372;4.640;2022-07-29T10:32:48;2.25;;;1.30;;
66153;SDS011;52956;52.372;4.640;2022-07-29T10:41:56;1.65;;;1.33;;
66153;SDS011;52956;52.372;4.640;2022-07-29T10:44:29;2.00;;;1.20;;
66153;SDS011;52956;52.372;4.640;2022-07-29T10:46:55;3.33;;;1.30;;
66153;SDS011;52956;52.372;4.640;2022-07-29T10:49:24;2.22;;;1.23;;
66153;SDS011;52956;52.372;4.640;2022-07-29T10:57:04;5.93;;;1.47;;
66153;SDS011;52956;52.372;4.640;2022-07-29T10:59:45;3.70;;;1.20;;
66153;SDS011;52956;52.372;4.640;2022-07-29T11:05:18;9.70;;;1.38;;
66153;SDS011;52956;52.372;4.640;2022-07-29T11:10:45;5.47;;;1.52;;
66153;SDS011;52956;52.372;4.640;2022-07-29T11:13:10;3.08;;;1.27;;
66153;SDS011;52956;52.372;4.640;2022-07-29T11:15:54;7.95;;;1.40;;
66153;SDS011;52956;52.372;4.640;2022-07-29T11:18:21;7.20;;;1.60;;
66153;SDS011;52956;52.372;4.640;2022-07-29T11:20:53;13.05;;;1.67;;
66153;SDS011;52956;52.372;4.640;2022-07-29T11:31:19;8.30;;;1.40;;
66153;SDS011;52956;52.372;4.640;2022-07-29T11:34:15;3.72;;;1.20;;
66153;SDS011;52956;52.372;4.640;2022-07-29T11:40:23;9.63;;;1.33;;
66153;SDS011;52956;52.372;4.640;2022-07-29T11:44:58;2.77;;;1.27;;
66153;SDS011;52956;52.372;4.640;2022-07-29T11:50:25;5.00;;;2.08;;
66153;SDS011;52956;52.372;4.640;2022-07-29T11:52:53;8.57;;;1.52;;
66153;SDS011;52956;52.372;4.640;2022-07-29T11:55:19;5.18;;;1.50;;
66153;SDS011;52956;52.372;4.640;2022-07-29T12:02:48;4.00;;;1.30;;
66153;SDS011;52956;52.372;4.640;2022-07-29T12:05:14;3.30;;;1.38;;
66153;SDS011;52956;52.372;4.640;2022-07-29T12:07:40;6.45;;;1.75;;
66153;SDS011;52956;52.372;4.640;2022-07-29T12:10:06;4.57;;;1.25;;
66153;SDS011;52956;52.372;4.640;2022-07-29T12:12:33;3.78;;;1.40;;
66153;SDS011;52956;52.372;4.640;2022-07-29T12:15:16;3.90;;;1.48;;
66153;SDS011;52956;52.372;4.640;2022-07-29T12:17:44;5.35;;;1.45;;
66153;SDS011;52956;52.372;4.640;2022-07-29T12:20:10;5.70;;;1.35;;
66153;SDS011;52956;52.372;4.640;2022-07-29T12:22:38;3.65;;;1.35;;
66153;SDS011;52956;52.372;4.640;2022-07-29T12:25:12;5.55;;;1.30;;
66153;SDS011;52956;52.372;4.640;2022-07-29T12:27:43;4.40;;;1.48;;
66153;SDS011;52956;52.372;4.640;2022-07-29T12:30:10;4.05;;;1.40;;
66153;SDS011;52956;52.372;4.640;2022-07-29T12:35:19;3.22;;;1.50;;
66153;SDS011;52956;52.372;4.640;2022-07-29T12:37:46;6.38;;;1.60;;
66153;SDS011;52956;52.372;4.640;2022-07-29T12:40:17;4.72;;;1.50;;
66153;SDS011;52956;52.372;4.640;2022-07-29T12:45:32;6.32;;;1.35;;
66153;SDS011;52956;52.372;4.640;2022-07-29T12:47:57;4.97;;;1.40;;
66153;SDS011;52956;52.372;4.640;2022-07-29T12:50:23;3.75;;;1.77;;
66153;SDS011;52956;52.372;4.640;2022-07-29T12:52:48;6.18;;;1.67;;
66153;SDS011;52956;52.372;4.640;2022-07-29T12:55:14;5.85;;;1.50;;
66153;SDS011;52956;52.372;4.640;2022-07-29T12:57:46;4.90;;;1.58;;
66153;SDS011;52956;52.372;4.640;2022-07-29T13:00:13;5.10;;;1.70;;
66153;SDS011;52956;52.372;4.640;2022-07-29T13:02:40;2.38;;;1.42;;
66153;SDS011;52956;52.372;4.640;2022-07-29T13:05:07;2.67;;;1.50;;
66153;SDS011;52956;52.372;4.640;2022-07-29T13:07:34;1.90;;;1.40;;
66153;SDS011;52956;52.372;4.640;2022-07-29T13:15:38;4.90;;;1.42;;
66153;SDS011;52956;52.372;4.640;2022-07-29T13:18:25;4.10;;;1.40;;
66153;SDS011;52956;52.372;4.640;2022-07-29T13:21:11;3.22;;;1.55;;
66153;SDS011;52956;52.372;4.640;2022-07-29T13:23:38;4.68;;;1.42;;
66153;SDS011;52956;52.372;4.640;2022-07-29T13:26:07;4.13;;;1.50;;
66153;SDS011;52956;52.372;4.640;2022-07-29T13:28:33;5.13;;;1.65;;
66153;SDS011;52956;52.372;4.640;2022-07-29T13:30:59;6.28;;;1.55;;
66153;SDS011;52956;52.372;4.640;2022-07-29T13:33:25;6.78;;;1.60;;
66153;SDS011;52956;52.372;4.640;2022-07-29T13:35:50;7.78;;;1.70;;
66153;SDS011;52956;52.372;4.640;2022-07-29T13:38:15;2.97;;;1.60;;
66153;SDS011;52956;52.372;4.640;2022-07-29T13:40:41;6.82;;;1.42;;
66153;SDS011;52956;52.372;4.640;2022-07-29T13:43:08;4.80;;;1.60;;
66153;SDS011;52956;52.372;4.640;2022-07-29T13:45:35;3.70;;;1.40;;
66153;SDS011;52956;52.372;4.640;2022-07-29T13:48:00;2.25;;;1.42;;
66153;SDS011;52956;52.372;4.640;2022-07-29T13:50:26;3.25;;;1.45;;
66153;SDS011;52956;52.372;4.640;2022-07-29T13:52:51;10.23;;;2.05;;
66153;SDS011;52956;52.372;4.640;2022-07-29T13:55:16;4.00;;;1.50;;
66153;SDS011;52956;52.372;4.640;2022-07-29T13:57:42;3.55;;;1.40;;
66153;SDS011;52956;52.372;4.640;2022-07-29T14:00:07;3.38;;;1.45;;
66153;SDS011;52956;52.372;4.640;2022-07-29T14:02:33;4.55;;;1.63;;
66153;SDS011;52956;52.372;4.640;2022-07-29T14:04:59;2.35;;;1.52;;
66153;SDS011;52956;52.372;4.640;2022-07-29T14:07:24;3.25;;;1.42;;
66153;SDS011;52956;52.372;4.640;2022-07-29T14:09:50;3.05;;;1.55;;
66153;SDS011;52956;52.372;4.640;2022-07-29T14:12:15;3.40;;;1.30;;
66153;SDS011;52956;52.372;4.640;2022-07-29T14:14:41;1.45;;;1.27;;
66153;SDS011;52956;52.372;4.640;2022-07-29T14:17:06;3.05;;;1.45;;
66153;SDS011;52956;52.372;4.640;2022-07-29T14:19:32;5.05;;;1.33;;
66153;SDS011;52956;52.372;4.640;2022-07-29T14:22:00;1.90;;;1.15;;
66153;SDS011;52956;52.372;4.640;2022-07-29T14:24:27;3.53;;;1.50;;
66153;SDS011;52956;52.372;4.640;2022-07-29T14:26:52;5.97;;;1.52;;
66153;SDS011;52956;52.372;4.640;2022-07-29T14:29:18;2.00;;;1.52;;
66153;SDS011;52956;52.372;4.640;2022-07-29T14:31:43;6.88;;;1.50;;
66153;SDS011;52956;52.372;4.640;2022-07-29T14:34:08;5.53;;;1.60;;
66153;SDS011;52956;52.372;4.640;2022-07-29T14:36:34;3.08;;;1.40;;
66153;SDS011;52956;52.372;4.640;2022-07-29T14:38:59;4.68;;;1.30;;
66153;SDS011;52956;52.372;4.640;2022-07-29T14:41:25;1.77;;;1.27;;
66153;SDS011;52956;52.372;4.640;2022-07-29T14:43:53;1.95;;;1.30;;
66153;SDS011;52956;52.372;4.640;2022-07-29T14:46:18;7.80;;;1.30;;
66153;SDS011;52956;52.372;4.640;2022-07-29T14:48:44;2.63;;;1.05;;
66153;SDS011;52956;52.372;4.640;2022-07-29T14:51:09;1.95;;;1.30;;
66153;SDS011;52956;52.372;4.640;2022-07-29T14:53:35;4.68;;;1.50;;
66153;SDS011;52956;52.372;4.640;2022-07-29T14:56:00;2.15;;;1.40;;
66153;SDS011;52956;52.372;4.640;2022-07-29T14:58:26;3.88;;;1.17;;
66153;SDS011;52956;52.372;4.640;2022-07-29T15:00:51;7.60;;;1.70;;
66153;SDS011;52956;52.372;4.640;2022-07-29T15:03:17;4.20;;;1.50;;
66153;SDS011;52956;52.372;4.640;2022-07-29T15:05:42;3.25;;;1.55;;
66153;SDS011;52956;52.372;4.640;2022-07-29T15:08:08;7.25;;;1.75;;
66153;SDS011;52956;52.372;4.640;2022-07-29T15:10:33;11.30;;;2.55;;
66153;SDS011;52956;52.372;4.640;2022-07-29T15:12:59;3.28;;;1.70;;
66153;SDS011;52956;52.372;4.640;2022-07-29T15:15:25;6.90;;;1.50;;
66153;SDS011;52956;52.372;4.640;2022-07-29T15:17:50;7.53;;;2.15;;
66153;SDS011;52956;52.372;4.640;2022-07-29T15:20:15;3.05;;;1.52;;
66153;SDS011;52956;52.372;4.640;2022-07-29T15:22:41;1.73;;;1.38;;
66153;SDS011;52956;52.372;4.640;2022-07-29T15:25:08;5.68;;;1.88;;
66153;SDS011;52956;52.372;4.640;2022-07-29T15:27:33;2.70;;;1.50;;
66153;SDS011;52956;52.372;4.640;2022-07-29T15:29:59;2.30;;;1.45;;
66153;SDS011;52956;52.372;4.640;2022-07-29T15:32:24;5.65;;;1.50;;
66153;SDS011;52956;52.372;4.640;2022-07-29T15:34:50;5.05;;;1.73;;
66153;SDS011;52956;52.372;4.640;2022-07-29T15:37:15;5.07;;;1.50;;
66153;SDS011;52956;52.372;4.640;2022-07-29T15:39:40;3.92;;;1.63;;
66153;SDS011;52956;52.372;4.640;2022-07-29T15:42:06;3.92;;;1.80;;
66153;SDS011;52956;52.372;4.640;2022-07-29T15:44:31;2.70;;;1.52;;
66153;SDS011;52956;52.372;4.640;2022-07-29T15:46:57;4.47;;;1.70;;
66153;SDS011;52956;52.372;4.640;2022-07-29T15:51:56;4.05;;;1.70;;
66153;SDS011;52956;52.372;4.640;2022-07-29T15:54:25;3.10;;;1.80;;
66153;SDS011;52956;52.372;4.640;2022-07-29T15:56:51;4.20;;;1.60;;
66153;SDS011;52956;52.372;4.640;2022-07-29T15:59:16;4.30;;;1.83;;
66153;SDS011;52956;52.372;4.640;2022-07-29T16:01:41;5.20;;;1.95;;
66153;SDS011;52956;52.372;4.640;2022-07-29T16:04:07;3.55;;;1.55;;
66153;SDS011;52956;52.372;4.640;2022-07-29T16:06:32;2.58;;;1.50;;